Time;durP1;ratioP1;P1;durP2;ratioP2;P2;SDS_P1;SDS_P2;PMS_P1;PMS_P2;Temp;Humidity;BMP_temperature;BMP_pressure;BME280_temperature;BME280_humidity;BME280_pressure;Samples;Min_cycle;Max_cycle;Signal;HPM_P1;HPM_P2
2022/09/28 00:02:10;;;;;;;;;;;;;;;;;;4976563;28;8369;-81
2022/09/28 00:04:35;;;;;;;;;;;;;;;;;;4976655;28;7323;-81
2022/09/28 00:07:01;;;;;;;;;;;;;;;;;;4975543;28;8804;-81
2022/09/28 00:09:26;;;;;;;;;;;;;;;;;;4975835;28;7025;-82
2022/09/28 00:11:56;;;;;;;;;;;;;;;;;;4976156;28;7383;-82
2022/09/28 00:14:22;;;;;;;;;;;;;;;;;;4975980;28;7031;-81
2022/09/28 00:16:48;;;;;;;;;;;;;;;;;;4976917;28;7048;-80
2022/09/28 00:19:14;;;;;;;;;;;;;;;;;;4977201;28;7928;-80
2022/09/28 00:21:40;;;;;;;;;;;;;;;;;;4977003;28;7365;-81
2022/09/28 00:24:17;;;;;;;;;;;;;;;;;;4977321;28;8357;-80
2022/09/28 00:26:54;;;;;;;;;;;;;;;;;;4976859;28;7254;-81
2022/09/28 00:29:25;;;;;;;;;;;;;;;;;;4977186;28;7720;-81
2022/09/28 00:31:56;;;;;;;;;;;;;;;;;;4976670;28;7333;-82
2022/09/28 00:34:21;;;;;;;;;;;;;;;;;;4976754;28;7784;-81
2022/09/28 00:36:47;;;;;;;;;;;;;;;;;;4977463;28;7142;-82
2022/09/28 00:39:15;;;;;;;;;;;;;;;;;;4977080;28;7417;-80
2022/09/28 00:41:41;;;;;;;;;;;;;;;;;;4977490;28;7260;-82
2022/09/28 00:44:25;;;;;;;;;;;;;;;;;;4975864;28;7160;-82
2022/09/28 00:46:53;;;;;;;;;;;;;;;;;;4976620;28;8381;-80
2022/09/28 00:49:23;;;;;;;;;;;;;;;;;;4977216;28;7017;-82
2022/09/28 00:51:49;;;;;;;;;;;;;;;;;;4976508;28;6990;-81
2022/09/28 00:54:15;;;;;;;;;;;;;;;;;;4976891;28;8374;-80
2022/09/28 00:56:46;;;;;;;;;;;;;;;;;;4976825;28;8385;-81
2022/09/28 00:59:14;;;;;;;;;;;;;;;;;;4976765;28;8526;-80
2022/09/28 01:01:40;;;;;;;;;;;;;;;;;;4976638;28;8653;-81
2022/09/28 01:04:06;;;;;;;;;;;;;;;;;;4976787;28;8346;-80
2022/09/28 01:06:33;;;;;;;;;;;;;;;;;;4976373;28;8353;-80
2022/09/28 01:09:04;;;;;;;;;;;;;;;;;;4976213;28;8442;-80
2022/09/28 01:11:31;;;;;;;;;;;;;;;;;;4976355;28;7166;-81
2022/09/28 01:13:57;;;;;;;;;;;;;;;;;;4975934;28;7030;-81
2022/09/28 01:16:37;;;;;;;;;;;;;;;;;;4976133;28;6804;-81
2022/09/28 01:19:23;;;;;;;;;;;;;;;;;;4975933;28;7023;-82
2022/09/28 01:22:10;;;;;;;;;;;;;;;;;;4975450;28;8648;-80
2022/09/28 01:24:36;;;;;;;;;;;;;;;;;;4976450;28;7152;-80
2022/09/28 01:27:22;;;;;;;;;;;;;;;;;;4976366;28;7096;-84
2022/09/28 01:30:03;;;;;;;;;;;;;;;;;;4968625;28;8576;-82
2022/09/28 01:32:28;;;;;;;;;;;;;;;;;;4976476;28;7016;-82
2022/09/28 01:35:09;;;;;;;;;;;;;;;;;;4976009;28;8958;-83
2022/09/28 01:37:46;;;;;;;;;;;;;;;;;;4975917;28;8407;-83
2022/09/28 01:40:14;;;;;;;;;;;;;;;;;;4975502;28;8727;-82
2022/09/28 01:42:44;;;;;;;;;;;;;;;;;;4975543;28;7094;-82
2022/09/28 01:45:15;;;;;;;;;;;;;;;;;;4975595;28;8391;-82
2022/09/28 01:47:43;;;;;;;;;;;;;;;;;;4975426;28;8388;-82
2022/09/28 01:50:12;;;;;;;;;;;;;;;;;;4976118;28;7035;-82
2022/09/28 01:52:46;;;;;;;;;;;;;;;;;;4975453;28;8631;-83
2022/09/28 01:55:23;;;;;;;;;;;;;;;;;;4975365;28;8813;-83
2022/09/28 01:57:55;;;;;;;;;;;;;;;;;;4976338;28;7263;-82
2022/09/28 02:00:23;;;;;;;;;;;;;;;;;;4975201;28;8640;-82
2022/09/28 02:02:55;;;;;;;;;;;;;;;;;;4975355;28;6807;-83
2022/09/28 02:05:32;;;;;;;;;;;;;;;;;;4975179;28;6979;-84
2022/09/28 02:08:16;;;;;;;;;;;;;;;;;;4975963;28;7009;-82
2022/09/28 02:10:45;;;;;;;;;;;;;;;;;;4975657;28;7364;-83
2022/09/28 02:13:16;;;;;;;;;;;;;;;;;;4975213;28;8407;-83
2022/09/28 02:15:50;;;;;;;;;;;;;;;;;;4975252;28;7030;-82
2022/09/28 02:18:16;;;;;;;;;;;;;;;;;;4975017;28;8378;-82
2022/09/28 02:20:46;;;;;;;;;;;;;;;;;;4975632;28;7315;-83
2022/09/28 02:23:12;;;;;;;;;;;;;;;;;;4975208;28;7396;-83
2022/09/28 02:25:51;;;;;;;;;;;;;;;;;;4975714;28;7030;-83
2022/09/28 02:28:17;;;;;;;;;;;;;;;;;;4974910;28;8354;-83
2022/09/28 02:30:44;;;;;;;;;;;;;;;;;;4974840;28;7916;-83
2022/09/28 02:33:09;;;;;;;;;;;;;;;;;;4974927;28;8296;-84
2022/09/28 02:35:36;;;;;;;;;;;;;;;;;;4975340;28;6940;-82
2022/09/28 02:38:02;;;;;;;;;;;;;;;;;;4974850;28;8389;-82
2022/09/28 02:40:32;;;;;;;;;;;;;;;;;;4974645;28;8740;-83
2022/09/28 02:42:58;;;;;;;;;;;;;;;;;;4974611;28;8469;-83
2022/09/28 02:45:42;;;;;;;;;;;;;;;;;;4975298;28;7374;-83
2022/09/28 02:48:34;;;;;;;;;;;;;;;;;;4974706;28;8453;-83
2022/09/28 02:51:02;;;;;;;;;;;;;;;;;;4975265;28;8401;-83
2022/09/28 02:53:41;;;;;;;;;;;;;;;;;;4974883;28;8311;-83
2022/09/28 02:56:07;;;;;;;;;;;;;;;;;;4975318;28;8001;-82
2022/09/28 02:58:49;;;;;;;;;;;;;;;;;;4974784;28;7137;-83
2022/09/28 03:01:18;;;;;;;;;;;;;;;;;;4975184;28;7183;-82
2022/09/28 03:03:46;;;;;;;;;;;;;;;;;;4974930;28;8503;-83
2022/09/28 03:06:44;;;;;;;;;;;;;;;;;;4974626;28;7164;-83
2022/09/28 03:09:28;;;;;;;;;;;;;;;;;;4957298;28;8735;-84
2022/09/28 03:11:58;;;;;;;;;;;;;;;;;;4978280;28;8472;-81
2022/09/28 03:14:24;;;;;;;;;;;;;;;;;;4978084;28;6819;-82
2022/09/28 03:16:50;;;;;;;;;;;;;;;;;;4978347;28;8331;-82
2022/09/28 03:19:19;;;;;;;;;;;;;;;;;;4978334;28;9397;-83
2022/09/28 03:21:44;;;;;;;;;;;;;;;;;;4978321;28;7173;-83
2022/09/28 03:24:10;;;;;;;;;;;;;;;;;;4978688;28;7003;-83
2022/09/28 03:26:37;;;;;;;;;;;;;;;;;;4978091;28;7238;-84
2022/09/28 03:29:03;;;;;;;;;;;;;;;;;;4978246;28;8410;-84
2022/09/28 03:31:29;;;;;;;;;;;;;;;;;;4974730;28;8610;-80
2022/09/28 03:33:54;;;;;;;;;;;;;;;;;;4966576;28;7184;-79
2022/09/28 03:36:20;;;;;;;;;;;;;;;;;;4975069;28;7029;-82
2022/09/28 03:38:46;;;;;;;;;;;;;;;;;;4977503;28;7028;-82
2022/09/28 03:41:12;;;;;;;;;;;;;;;;;;4984378;28;7171;-80
2022/09/28 03:43:37;;;;;;;;;;;;;;;;;;4958251;28;8353;-81
2022/09/28 03:46:03;;;;;;;;;;;;;;;;;;4974013;28;7143;-83
2022/09/28 03:48:30;;;;;;;;;;;;;;;;;;4994775;28;8423;-84
2022/09/28 03:50:57;;;;;;;;;;;;;;;;;;4979606;28;7327;-83
2022/09/28 03:53:23;;;;;;;;;;;;;;;;;;4972955;28;7032;-78
2022/09/28 03:55:49;;;;;;;;;;;;;;;;;;4987474;28;6832;-78
2022/09/28 03:58:15;;;;;;;;;;;;;;;;;;4992347;28;8438;-78
2022/09/28 04:00:41;;;;;;;;;;;;;;;;;;4993746;28;7025;-78
2022/09/28 04:03:07;;;;;;;;;;;;;;;;;;4994280;28;7087;-78
2022/09/28 04:05:32;;;;;;;;;;;;;;;;;;4993830;28;7348;-77
2022/09/28 04:07:58;;;;;;;;;;;;;;;;;;4993867;28;7134;-77
2022/09/28 04:10:25;;;;;;;;;;;;;;;;;;4993677;28;8392;-77
2022/09/28 04:12:57;;;;;;;;;;;;;;;;;;4993700;28;8577;-77
2022/09/28 04:15:23;;;;;;;;;;;;;;;;;;4993128;28;8557;-77
2022/09/28 04:17:49;;;;;;;;;;;;;;;;;;4977512;28;7101;-77
2022/09/28 04:20:14;;;;;;;;;;;;;;;;;;4992147;28;6810;-78
2022/09/28 04:22:40;;;;;;;;;;;;;;;;;;4993648;28;8365;-76
2022/09/28 04:25:06;;;;;;;;;;;;;;;;;;4994771;28;6998;-77
2022/09/28 04:30:26;;;;;;;;;;;;;;;;;;4993640;28;7104;-77
2022/09/28 04:32:52;;;;;;;;;;;;;;;;;;4993196;28;8369;-77
2022/09/28 04:35:17;;;;;;;;;;;;;;;;;;4992825;28;8734;-77
2022/09/28 04:37:43;;;;;;;;;;;;;;;;;;4994036;28;8769;-77
2022/09/28 04:40:08;;;;;;;;;;;;;;;;;;4993164;28;6994;-77
2022/09/28 04:42:34;;;;;;;;;;;;;;;;;;4993542;28;7024;-78
2022/09/28 04:45:01;;;;;;;;;;;;;;;;;;4992949;28;8385;-78
2022/09/28 04:47:28;;;;;;;;;;;;;;;;;;4994004;28;6989;-77
2022/09/28 04:49:53;;;;;;;;;;;;;;;;;;4993248;28;6849;-77
2022/09/28 04:52:19;;;;;;;;;;;;;;;;;;4992799;28;8396;-77
2022/09/28 04:54:44;;;;;;;;;;;;;;;;;;4993390;28;9642;-77
2022/09/28 04:57:10;;;;;;;;;;;;;;;;;;4993423;28;8452;-78
2022/09/28 04:59:36;;;;;;;;;;;;;;;;;;4993103;28;8372;-77
2022/09/28 05:02:02;;;;;;;;;;;;;;;;;;4997460;28;7036;-77
2022/09/28 05:04:29;;;;;;;;;;;;;;;;;;4986044;28;7054;-78
2022/09/28 05:06:55;;;;;;;;;;;;;;;;;;5001395;28;7055;-78
2022/09/28 05:09:20;;;;;;;;;;;;;;;;;;4983348;28;7004;-77
2022/09/28 05:11:48;;;;;;;;;;;;;;;;;;4985647;28;8561;-78
2022/09/28 05:14:13;;;;;;;;;;;;;;;;;;4986007;28;8426;-78
2022/09/28 05:16:39;;;;;;;;;;;;;;;;;;4989558;28;7032;-77
2022/09/28 05:19:05;;;;;;;;;;;;;;;;;;4986627;28;8422;-78
2022/09/28 05:21:31;;;;;;;;;;;;;;;;;;4986789;28;9449;-77
2022/09/28 05:23:57;;;;;;;;;;;;;;;;;;4987013;28;8643;-78
2022/09/28 05:26:23;;;;;;;;;;;;;;;;;;4986762;28;7180;-77
2022/09/28 05:28:49;;;;;;;;;;;;;;;;;;4986322;28;8472;-77
2022/09/28 05:31:15;;;;;;;;;;;;;;;;;;4985722;28;6821;-78
2022/09/28 05:33:40;;;;;;;;;;;;;;;;;;4986110;28;7171;-77
2022/09/28 05:36:09;;;;;;;;;;;;;;;;;;4988484;28;8566;-78
2022/09/28 05:38:34;;;;;;;;;;;;;;;;;;5001111;28;7059;-78
2022/09/28 05:41:00;;;;;;;;;;;;;;;;;;4986627;28;7417;-77
2022/09/28 05:43:25;;;;;;;;;;;;;;;;;;4986339;28;8694;-78
2022/09/28 05:45:50;;;;;;;;;;;;;;;;;;4988346;28;7021;-77
2022/09/28 05:48:16;;;;;;;;;;;;;;;;;;4986797;28;8394;-78
2022/09/28 05:50:41;;;;;;;;;;;;;;;;;;4998182;28;8372;-77
2022/09/28 05:53:08;;;;;;;;;;;;;;;;;;4997988;28;6987;-77
2022/09/28 05:55:35;;;;;;;;;;;;;;;;;;4998226;28;8807;-77
2022/09/28 05:58:02;;;;;;;;;;;;;;;;;;4998231;28;7047;-77
2022/09/28 06:00:29;;;;;;;;;;;;;;;;;;4998142;28;8618;-82
2022/09/28 06:03:06;;;;;;;;;;;;;;;;;;4998224;28;7110;-82
2022/09/28 06:05:33;;;;;;;;;;;;;;;;;;4996851;28;8377;-83
2022/09/28 06:08:03;;;;;;;;;;;;;;;;;;4996971;28;7223;-83
2022/09/28 06:10:30;;;;;;;;;;;;;;;;;;4997918;28;7053;-82
2022/09/28 06:12:56;;;;;;;;;;;;;;;;;;4992631;28;7052;-82
2022/09/28 06:15:23;;;;;;;;;;;;;;;;;;4997757;28;7319;-81
2022/09/28 06:17:59;;;;;;;;;;;;;;;;;;4998309;28;8405;-82
2022/09/28 06:20:28;;;;;;;;;;;;;;;;;;4998445;28;8401;-82
2022/09/28 06:22:54;;;;;;;;;;;;;;;;;;4998013;28;8417;-80
2022/09/28 06:25:21;;;;;;;;;;;;;;;;;;4997876;28;8474;-81
2022/09/28 06:27:54;;;;;;;;;;;;;;;;;;4997706;28;8747;-83
2022/09/28 06:30:20;;;;;;;;;;;;;;;;;;4997763;28;7096;-82
2022/09/28 06:32:46;;;;;;;;;;;;;;;;;;4997503;28;8553;-81
2022/09/28 06:35:14;;;;;;;;;;;;;;;;;;4998436;28;8379;-82
2022/09/28 06:37:43;;;;;;;;;;;;;;;;;;4998027;28;7034;-81
2022/09/28 06:40:09;;;;;;;;;;;;;;;;;;4997984;28;7193;-82
2022/09/28 06:42:34;;;;;;;;;;;;;;;;;;4996770;28;8382;-82
2022/09/28 06:45:00;;;;;;;;;;;;;;;;;;4997436;28;7150;-83
2022/09/28 06:47:25;;;;;;;;;;;;;;;;;;4997503;28;8373;-82
2022/09/28 06:49:54;;;;;;;;;;;;;;;;;;4998341;28;8305;-82
2022/09/28 06:52:20;;;;;;;;;;;;;;;;;;4997407;28;7153;-81
2022/09/28 06:54:45;;;;;;;;;;;;;;;;;;4997642;28;8633;-82
2022/09/28 06:57:11;;;;;;;;;;;;;;;;;;4997325;28;7219;-81
2022/09/28 06:59:37;;;;;;;;;;;;;;;;;;4997678;28;8401;-81
2022/09/28 07:02:03;;;;;;;;;;;;;;;;;;4997795;28;8453;-83
2022/09/28 07:04:30;;;;;;;;;;;;;;;;;;4997353;28;7080;-81
2022/09/28 07:06:56;;;;;;;;;;;;;;;;;;4997728;28;8406;-81
2022/09/28 07:09:21;;;;;;;;;;;;;;;;;;4997417;28;8704;-82
2022/09/28 07:11:47;;;;;;;;;;;;;;;;;;4997523;28;9367;-82
2022/09/28 07:14:12;;;;;;;;;;;;;;;;;;4997080;28;8499;-82
2022/09/28 07:16:38;;;;;;;;;;;;;;;;;;4993515;28;8333;-82
2022/09/28 07:19:03;;;;;;;;;;;;;;;;;;4996445;28;8458;-84
2022/09/28 07:21:29;;;;;;;;;;;;;;;;;;4996762;28;8412;-82
2022/09/28 07:23:54;;;;;;;;;;;;;;;;;;4996478;28;7007;-83
2022/09/28 07:26:20;;;;;;;;;;;;;;;;;;4996851;28;6988;-82
2022/09/28 07:28:46;;;;;;;;;;;;;;;;;;4996835;28;7107;-83
2022/09/28 07:31:11;;;;;;;;;;;;;;;;;;4996702;28;8427;-81
2022/09/28 07:33:36;;;;;;;;;;;;;;;;;;4997327;28;6998;-81
2022/09/28 07:36:05;;;;;;;;;;;;;;;;;;4996935;28;6993;-82
2022/09/28 07:38:31;;;;;;;;;;;;;;;;;;4995835;28;7173;-83
2022/09/28 07:41:13;;;;;;;;;;;;;;;;;;4996410;28;8445;-82
2022/09/28 07:43:40;;;;;;;;;;;;;;;;;;4996747;28;7170;-82
2022/09/28 07:46:10;;;;;;;;;;;;;;;;;;4996375;28;9649;-82
2022/09/28 07:48:40;;;;;;;;;;;;;;;;;;4996752;28;8834;-84
2022/09/28 07:51:06;;;;;;;;;;;;;;;;;;4995093;28;8833;-81
2022/09/28 07:53:33;;;;;;;;;;;;;;;;;;4988087;28;7087;-80
2022/09/28 07:56:06;;;;;;;;;;;;;;;;;;4994247;28;7447;-80
2022/09/28 07:58:36;;;;;;;;;;;;;;;;;;4995419;28;8828;-85
2022/09/28 08:01:03;;;;;;;;;;;;;;;;;;4993817;28;8428;-84
2022/09/28 08:03:29;;;;;;;;;;;;;;;;;;4993610;28;7254;-85
2022/09/28 08:05:59;;;;;;;;;;;;;;;;;;4999671;28;7148;-84
2022/09/28 08:08:24;;;;;;;;;;;;;;;;;;4980312;28;8404;-84
2022/09/28 08:10:51;;;;;;;;;;;;;;;;;;4979714;28;8947;-83
2022/09/28 08:13:17;;;;;;;;;;;;;;;;;;4992852;28;7052;-87
2022/09/28 08:15:43;;;;;;;;;;;;;;;;;;5011888;28;7006;-83
2022/09/28 08:18:09;;;;;;;;;;;;;;;;;;5012128;28;7052;-82
2022/09/28 08:23:19;;;;;;;;;;;;;;;;;;4997622;28;6988;-81
2022/09/28 08:25:47;;;;;;;;;;;;;;;;;;5012396;28;7037;-81
2022/09/28 08:28:15;;;;;;;;;;;;;;;;;;5012444;28;7036;-80
2022/09/28 08:30:41;;;;;;;;;;;;;;;;;;5012546;28;7224;-80
2022/09/28 08:33:06;;;;;;;;;;;;;;;;;;5012250;28;7189;-80
2022/09/28 08:35:33;;;;;;;;;;;;;;;;;;5012740;28;7015;-81
2022/09/28 08:37:59;;;;;;;;;;;;;;;;;;5013148;28;8683;-80
2022/09/28 08:40:24;;;;;;;;;;;;;;;;;;5011139;28;7902;-80
2022/09/28 08:42:56;;;;;;;;;;;;;;;;;;5011011;28;7125;-81
2022/09/28 08:45:26;;;;;;;;;;;;;;;;;;5011004;28;8665;-81
2022/09/28 08:51:05;;;;;;;;;;;;;;;;;;4995603;28;6957;-81
2022/09/28 08:53:40;;;;;;;;;;;;;;;;;;5011254;28;7318;-82
2022/09/28 08:56:12;;;;;;;;;;;;;;;;;;5011966;28;8827;-82
2022/09/28 08:58:41;;;;;;;;;;;;;;;;;;5012756;28;8442;-83
2022/09/28 09:01:15;;;;;;;;;;;;;;;;;;5012391;28;8422;-79
2022/09/28 09:03:44;;;;;;;;;;;;;;;;;;5012334;28;7118;-81
2022/09/28 09:06:26;;;;;;;;;;;;;;;;;;5011841;28;7173;-84
2022/09/28 09:08:56;;;;;;;;;;;;;;;;;;4995932;28;6967;-84
2022/09/28 09:11:37;;;;;;;;;;;;;;;;;;4995766;28;7168;-84
2022/09/28 09:14:11;;;;;;;;;;;;;;;;;;4996663;28;8817;-84
2022/09/28 09:16:43;;;;;;;;;;;;;;;;;;4996341;28;7114;-80
2022/09/28 09:19:11;;;;;;;;;;;;;;;;;;4995952;28;7123;-80
2022/09/28 09:21:37;;;;;;;;;;;;;;;;;;4995379;28;8328;-82
2022/09/28 09:24:11;;;;;;;;;;;;;;;;;;4995386;28;9343;-82
2022/09/28 09:26:38;;;;;;;;;;;;;;;;;;4996017;28;7179;-81
2022/09/28 09:29:19;;;;;;;;;;;;;;;;;;5011948;28;7115;-81
2022/09/28 09:32:03;;;;;;;;;;;;;;;;;;4995204;28;7888;-81
2022/09/28 09:34:32;;;;;;;;;;;;;;;;;;4995277;28;8312;-81
2022/09/28 09:37:33;;;;;;;;;;;;;;;;;;4995806;28;9696;-81
2022/09/28 09:39:58;;;;;;;;;;;;;;;;;;4974430;28;8431;-80
2022/09/28 09:42:57;;;;;;;;;;;;;;;;;;4995530;28;8465;-80
2022/09/28 09:45:41;;;;;;;;;;;;;;;;;;4973664;28;7163;-81
2022/09/28 09:48:14;;;;;;;;;;;;;;;;;;4995255;28;8557;-81
2022/09/28 09:50:47;;;;;;;;;;;;;;;;;;5011211;28;7091;-80
2022/09/28 09:53:34;;;;;;;;;;;;;;;;;;5011274;28;6984;-82
2022/09/28 09:56:10;;;;;;;;;;;;;;;;;;5010907;28;9714;-82
2022/09/28 09:58:43;;;;;;;;;;;;;;;;;;5011247;28;6812;-83
2022/09/28 10:01:14;;;;;;;;;;;;;;;;;;5011086;28;7155;-81
2022/09/28 10:03:43;;;;;;;;;;;;;;;;;;5011265;28;6850;-77
2022/09/28 10:06:16;;;;;;;;;;;;;;;;;;5010470;28;8398;-82
2022/09/28 10:08:52;;;;;;;;;;;;;;;;;;5012158;28;7107;-84
2022/09/28 10:11:18;;;;;;;;;;;;;;;;;;5010048;28;7200;-82
2022/09/28 10:13:46;;;;;;;;;;;;;;;;;;4994553;28;7311;-83
2022/09/28 10:16:12;;;;;;;;;;;;;;;;;;5010707;28;8560;-83
2022/09/28 10:18:38;;;;;;;;;;;;;;;;;;5011052;28;8475;-84
2022/09/28 10:21:03;;;;;;;;;;;;;;;;;;5010700;28;7098;-84
2022/09/28 10:23:35;;;;;;;;;;;;;;;;;;5011185;28;7469;-83
2022/09/28 10:26:23;;;;;;;;;;;;;;;;;;5010661;28;8359;-84
2022/09/28 10:28:54;;;;;;;;;;;;;;;;;;5010560;28;7900;-84
2022/09/28 10:31:39;;;;;;;;;;;;;;;;;;5010964;28;8853;-83
2022/09/28 10:34:07;;;;;;;;;;;;;;;;;;5010500;28;7190;-83
2022/09/28 10:36:43;;;;;;;;;;;;;;;;;;5010776;28;7191;-84
2022/09/28 10:39:24;;;;;;;;;;;;;;;;;;5011085;28;8529;-84
2022/09/28 10:41:50;;;;;;;;;;;;;;;;;;5010557;28;8468;-84
2022/09/28 10:44:18;;;;;;;;;;;;;;;;;;5010725;28;8457;-84
2022/09/28 10:46:43;;;;;;;;;;;;;;;;;;5010981;28;8433;-83
2022/09/28 10:49:16;;;;;;;;;;;;;;;;;;5010334;28;7019;-83
2022/09/28 10:51:46;;;;;;;;;;;;;;;;;;5011008;28;7248;-83
2022/09/28 10:54:15;;;;;;;;;;;;;;;;;;5010931;28;7054;-84
2022/09/28 10:56:41;;;;;;;;;;;;;;;;;;5010427;28;7174;-83
2022/09/28 10:59:25;;;;;;;;;;;;;;;;;;5010550;28;8708;-85
2022/09/28 11:02:14;;;;;;;;;;;;;;;;;;4994016;28;8337;-84
2022/09/28 11:04:42;;;;;;;;;;;;;;;;;;4994057;28;8475;-85
2022/09/28 11:07:23;;;;;;;;;;;;;;;;;;5010770;28;9355;-85
2022/09/28 11:09:51;;;;;;;;;;;;;;;;;;5010433;28;7159;-85
2022/09/28 11:12:20;;;;;;;;;;;;;;;;;;5010853;28;8740;-84
2022/09/28 11:14:51;;;;;;;;;;;;;;;;;;5010276;28;7028;-82
2022/09/28 11:17:37;;;;;;;;;;;;;;;;;;5010905;28;7051;-81
2022/09/28 11:20:28;;;;;;;;;;;;;;;;;;5010785;28;7272;-81
2022/09/28 11:22:59;;;;;;;;;;;;;;;;;;5010570;28;8419;-81
2022/09/28 11:25:26;;;;;;;;;;;;;;;;;;5010732;28;8639;-82
2022/09/28 11:27:52;;;;;;;;;;;;;;;;;;5010800;28;7057;-81
2022/09/28 11:30:21;;;;;;;;;;;;;;;;;;4998362;28;8425;-82
2022/09/28 11:32:47;;;;;;;;;;;;;;;;;;4998267;28;7409;-81
2022/09/28 11:35:19;;;;;;;;;;;;;;;;;;5014270;28;8777;-82
2022/09/28 11:37:53;;;;;;;;;;;;;;;;;;5013680;28;7240;-81
2022/09/28 11:40:25;;;;;;;;;;;;;;;;;;4997609;28;8454;-81
2022/09/28 11:42:53;;;;;;;;;;;;;;;;;;4997348;28;7166;-82
2022/09/28 11:45:28;;;;;;;;;;;;;;;;;;4998424;28;8431;-82
2022/09/28 11:48:02;;;;;;;;;;;;;;;;;;4997220;28;7082;-81
2022/09/28 11:50:33;;;;;;;;;;;;;;;;;;5014286;28;8395;-82
2022/09/28 11:53:18;;;;;;;;;;;;;;;;;;4997513;28;8910;-83
2022/09/28 11:56:03;;;;;;;;;;;;;;;;;;4997692;28;8813;-83
2022/09/28 11:58:40;;;;;;;;;;;;;;;;;;5013847;28;8437;-83
2022/09/28 12:01:21;;;;;;;;;;;;;;;;;;4997150;28;7026;-83
2022/09/28 12:03:54;;;;;;;;;;;;;;;;;;5013628;28;7080;-83
2022/09/28 12:06:30;;;;;;;;;;;;;;;;;;5013752;28;7220;-82
2022/09/28 12:09:05;;;;;;;;;;;;;;;;;;5013158;28;7129;-82
2022/09/28 12:11:44;;;;;;;;;;;;;;;;;;5013246;28;7218;-83
2022/09/28 12:14:19;;;;;;;;;;;;;;;;;;5012944;28;8364;-81
2022/09/28 12:16:50;;;;;;;;;;;;;;;;;;5013055;28;7361;-82
2022/09/28 12:19:21;;;;;;;;;;;;;;;;;;5013051;28;8420;-81
2022/09/28 12:21:52;;;;;;;;;;;;;;;;;;5013238;28;7257;-82
2022/09/28 12:24:36;;;;;;;;;;;;;;;;;;5013494;28;8083;-82
2022/09/28 12:27:06;;;;;;;;;;;;;;;;;;5012894;28;8416;-82
2022/09/28 12:29:37;;;;;;;;;;;;;;;;;;5013051;28;8538;-82
2022/09/28 12:32:12;;;;;;;;;;;;;;;;;;5012798;28;8251;-82
2022/09/28 12:34:40;;;;;;;;;;;;;;;;;;5012729;28;8815;-82
2022/09/28 12:37:21;;;;;;;;;;;;;;;;;;4997045;28;8291;-81
2022/09/28 12:39:50;;;;;;;;;;;;;;;;;;4995772;28;8434;-82
2022/09/28 12:42:15;;;;;;;;;;;;;;;;;;4996640;28;7205;-82
2022/09/28 12:44:40;;;;;;;;;;;;;;;;;;4996570;28;8385;-82
2022/09/28 12:47:15;;;;;;;;;;;;;;;;;;4996593;28;8411;-83
2022/09/28 12:49:50;;;;;;;;;;;;;;;;;;4996070;28;7105;-83
2022/09/28 12:52:26;;;;;;;;;;;;;;;;;;4996340;28;8419;-83
2022/09/28 12:54:54;;;;;;;;;;;;;;;;;;4996459;28;7050;-82
2022/09/28 12:57:24;;;;;;;;;;;;;;;;;;4996260;28;8413;-82
2022/09/28 13:00:10;;;;;;;;;;;;;;;;;;4996057;28;8819;-81
2022/09/28 13:02:45;;;;;;;;;;;;;;;;;;5012375;28;8401;-82
2022/09/28 13:05:34;;;;;;;;;;;;;;;;;;4996063;28;8430;-81
2022/09/28 13:08:18;;;;;;;;;;;;;;;;;;4990735;28;7053;-82
2022/09/28 13:11:04;;;;;;;;;;;;;;;;;;4995737;28;8421;-82
2022/09/28 13:13:53;;;;;;;;;;;;;;;;;;5012169;28;8797;-81
2022/09/28 13:16:20;;;;;;;;;;;;;;;;;;4990433;28;7062;-82
2022/09/28 13:18:52;;;;;;;;;;;;;;;;;;4995571;28;7050;-82
2022/09/28 13:21:31;;;;;;;;;;;;;;;;;;4995747;28;8815;-82
2022/09/28 13:24:00;;;;;;;;;;;;;;;;;;4996147;28;7143;-81
2022/09/28 13:26:26;;;;;;;;;;;;;;;;;;4995417;28;7256;-82
2022/09/28 13:28:56;;;;;;;;;;;;;;;;;;4995226;28;7436;-82
2022/09/28 13:31:32;;;;;;;;;;;;;;;;;;5012287;28;7148;-83
2022/09/28 13:34:02;;;;;;;;;;;;;;;;;;4995807;28;7058;-82
2022/09/28 13:36:28;;;;;;;;;;;;;;;;;;5011904;28;8419;-81
2022/09/28 13:38:55;;;;;;;;;;;;;;;;;;4995430;28;7095;-82
2022/09/28 13:41:36;;;;;;;;;;;;;;;;;;5011376;28;8452;-83
2022/09/28 13:44:01;;;;;;;;;;;;;;;;;;5011581;28;9031;-82
2022/09/28 13:46:46;;;;;;;;;;;;;;;;;;4995687;28;8096;-83
2022/09/28 13:49:15;;;;;;;;;;;;;;;;;;4995519;28;8385;-82
2022/09/28 13:51:54;;;;;;;;;;;;;;;;;;4994944;28;7172;-83
2022/09/28 13:54:28;;;;;;;;;;;;;;;;;;5012871;28;8616;-82
2022/09/28 13:56:54;;;;;;;;;;;;;;;;;;5011318;28;8588;-81
2022/09/28 13:59:28;;;;;;;;;;;;;;;;;;4995124;28;8573;-82
2022/09/28 14:01:54;;;;;;;;;;;;;;;;;;5011285;28;7258;-82
2022/09/28 14:04:38;;;;;;;;;;;;;;;;;;4994854;28;8392;-83
2022/09/28 14:07:09;;;;;;;;;;;;;;;;;;4995016;28;8678;-82
2022/09/28 14:09:58;;;;;;;;;;;;;;;;;;5010810;28;8477;-82
2022/09/28 14:12:30;;;;;;;;;;;;;;;;;;4988816;28;8431;-82
2022/09/28 14:14:55;;;;;;;;;;;;;;;;;;5011504;28;8412;-83
2022/09/28 14:17:21;;;;;;;;;;;;;;;;;;5010803;28;7051;-81
2022/09/28 14:19:58;;;;;;;;;;;;;;;;;;4994773;28;6993;-82
2022/09/28 14:22:26;;;;;;;;;;;;;;;;;;5011156;28;8527;-85
2022/09/28 14:24:52;;;;;;;;;;;;;;;;;;4995074;28;8433;-85
2022/09/28 14:27:32;;;;;;;;;;;;;;;;;;4994213;28;8610;-84
2022/09/28 14:30:06;;;;;;;;;;;;;;;;;;4985040;28;8497;-78
2022/09/28 14:32:35;;;;;;;;;;;;;;;;;;4973995;28;7062;-81
2022/09/28 14:35:04;;;;;;;;;;;;;;;;;;4989184;28;8356;-82
2022/09/28 14:43:23;;;;;;;;;;;;;;;;;;4994215;28;6803;-83
2022/09/28 14:45:51;;;;;;;;;;;;;;;;;;4975781;28;7359;-79
2022/09/28 14:48:19;;;;;;;;;;;;;;;;;;4979137;28;7067;-77
2022/09/28 14:50:46;;;;;;;;;;;;;;;;;;4992561;28;8959;-83
2022/09/28 14:53:23;;;;;;;;;;;;;;;;;;4993456;28;7082;-84
2022/09/28 14:55:54;;;;;;;;;;;;;;;;;;4993478;28;8520;-83
2022/09/28 14:58:25;;;;;;;;;;;;;;;;;;4992681;28;8430;-84
2022/09/28 15:01:04;;;;;;;;;;;;;;;;;;4992461;28;7178;-83
2022/09/28 15:03:33;;;;;;;;;;;;;;;;;;4994502;28;8361;-82
2022/09/28 15:06:00;;;;;;;;;;;;;;;;;;4980671;28;7365;-84
2022/09/28 15:08:38;;;;;;;;;;;;;;;;;;4980920;28;7221;-81
2022/09/28 15:11:05;;;;;;;;;;;;;;;;;;4980421;28;8417;-81
2022/09/28 15:13:31;;;;;;;;;;;;;;;;;;4980959;28;8616;-83
2022/09/28 15:16:06;;;;;;;;;;;;;;;;;;4980811;28;8751;-82
2022/09/28 15:18:43;;;;;;;;;;;;;;;;;;4980744;28;7201;-83
2022/09/28 15:21:10;;;;;;;;;;;;;;;;;;4980194;28;8420;-82
2022/09/28 15:23:45;;;;;;;;;;;;;;;;;;4980830;28;8425;-82
2022/09/28 15:26:37;;;;;;;;;;;;;;;;;;4980899;28;7063;-82
2022/09/28 15:29:16;;;;;;;;;;;;;;;;;;4977934;28;9319;-82
2022/09/28 15:31:42;;;;;;;;;;;;;;;;;;4997054;28;8893;-80
2022/09/28 15:34:53;;;;;;;;;;;;;;;;;;4980200;28;8285;-83
2022/09/28 15:36:59;;;;;;;;;;;;;;;;;;4987761;28;7263;-84
2022/09/28 15:39:32;;;;;;;;;;;;;;;;;;4987764;28;7334;-83
2022/09/28 15:41:59;;;;;;;;;;;;;;;;;;4976908;28;6851;-83
2022/09/28 15:44:31;;;;;;;;;;;;;;;;;;4976593;28;7181;-84
2022/09/28 15:47:15;;;;;;;;;;;;;;;;;;4977199;28;7445;-84
2022/09/28 15:50:01;;;;;;;;;;;;;;;;;;4980120;28;7256;-83
2022/09/28 15:52:45;;;;;;;;;;;;;;;;;;4980473;28;8422;-82
2022/09/28 15:55:17;;;;;;;;;;;;;;;;;;4980764;28;8811;-83
2022/09/28 15:57:43;;;;;;;;;;;;;;;;;;4981126;28;6997;-84
2022/09/28 16:00:28;;;;;;;;;;;;;;;;;;4980787;28;7478;-84
2022/09/28 16:03:19;;;;;;;;;;;;;;;;;;4981308;28;7182;-84
2022/09/28 16:05:50;;;;;;;;;;;;;;;;;;4981298;28;8012;-84
2022/09/28 16:08:23;;;;;;;;;;;;;;;;;;4980154;28;6837;-82
2022/09/28 16:11:15;;;;;;;;;;;;;;;;;;4980496;28;8439;-82
2022/09/28 16:13:50;;;;;;;;;;;;;;;;;;4963925;28;7100;-83
2022/09/28 16:16:16;;;;;;;;;;;;;;;;;;4960991;28;7248;-84
2022/09/28 16:18:46;;;;;;;;;;;;;;;;;;4961306;28;7140;-83
2022/09/28 16:21:42;;;;;;;;;;;;;;;;;;4961091;28;8848;-82
2022/09/28 16:24:18;;;;;;;;;;;;;;;;;;4948558;28;7190;-82
2022/09/28 16:26:44;;;;;;;;;;;;;;;;;;4961097;28;7187;-82
2022/09/28 16:29:31;;;;;;;;;;;;;;;;;;4961133;28;8676;-82
2022/09/28 16:32:16;;;;;;;;;;;;;;;;;;4964653;28;8651;-82
2022/09/28 16:34:42;;;;;;;;;;;;;;;;;;4976677;28;8449;-83
2022/09/28 16:37:29;;;;;;;;;;;;;;;;;;4977329;28;8416;-82
2022/09/28 16:39:55;;;;;;;;;;;;;;;;;;4977683;28;7439;-82
2022/09/28 16:42:21;;;;;;;;;;;;;;;;;;4977413;28;8692;-84
2022/09/28 16:44:46;;;;;;;;;;;;;;;;;;4977047;28;8403;-83
2022/09/28 16:47:14;;;;;;;;;;;;;;;;;;4976982;28;6797;-83
2022/09/28 16:49:40;;;;;;;;;;;;;;;;;;4976804;28;7165;-83
2022/09/28 16:52:11;;;;;;;;;;;;;;;;;;4976818;28;7160;-81
2022/09/28 16:57:21;;;;;;;;;;;;;;;;;;4977779;28;6804;-81
2022/09/28 16:59:47;;;;;;;;;;;;;;;;;;4976361;28;7122;-82
2022/09/28 17:02:18;;;;;;;;;;;;;;;;;;4976741;28;8574;-82
2022/09/28 17:04:43;;;;;;;;;;;;;;;;;;4976770;28;8483;-81
2022/09/28 17:07:12;;;;;;;;;;;;;;;;;;4977292;28;8384;-82
2022/09/28 17:09:37;;;;;;;;;;;;;;;;;;4976606;28;8654;-82
2022/09/28 17:12:27;;;;;;;;;;;;;;;;;;4977154;28;8417;-82
2022/09/28 17:14:52;;;;;;;;;;;;;;;;;;4976597;28;8854;-82
2022/09/28 17:17:18;;;;;;;;;;;;;;;;;;4976360;28;8461;-82
2022/09/28 17:19:43;;;;;;;;;;;;;;;;;;4976694;28;8459;-82
2022/09/28 17:22:09;;;;;;;;;;;;;;;;;;4977076;28;8699;-82
2022/09/28 17:24:35;;;;;;;;;;;;;;;;;;5005341;28;7168;-82
2022/09/28 17:27:02;;;;;;;;;;;;;;;;;;5012353;28;7023;-83
2022/09/28 17:29:28;;;;;;;;;;;;;;;;;;5013816;28;7200;-81
2022/09/28 17:31:54;;;;;;;;;;;;;;;;;;5016390;28;7077;-86
2022/09/28 17:34:19;;;;;;;;;;;;;;;;;;5012155;28;7163;-84
2022/09/28 17:36:45;;;;;;;;;;;;;;;;;;5012098;28;8619;-83
2022/09/28 17:39:15;;;;;;;;;;;;;;;;;;4993596;28;8347;-78
2022/09/28 17:41:41;;;;;;;;;;;;;;;;;;4995895;28;8328;-79
2022/09/28 17:44:06;;;;;;;;;;;;;;;;;;4994341;28;7988;-81
2022/09/28 17:46:33;;;;;;;;;;;;;;;;;;4994493;28;8376;-81